sensor_id;sensor_type;location;lat;lon;timestamp;pressure;altitude;pressure_sealevel;temperature;humidity
7670;BME280;3877;42.562;27.636;2023-06-26T00:01:57;101063.03;;;24.21;100.00
7670;BME280;3877;42.562;27.636;2023-06-26T00:04:24;101065.50;;;24.37;100.00
7670;BME280;3877;42.562;27.636;2023-06-26T00:06:51;101073.69;;;24.35;100.00
7670;BME280;3877;42.562;27.636;2023-06-26T00:09:20;101065.91;;;24.39;100.00
7670;BME280;3877;42.562;27.636;2023-06-26T00:11:47;101062.22;;;24.35;100.00
7670;BME280;3877;42.562;27.636;2023-06-26T00:14:14;101057.75;;;24.37;100.00
7670;BME280;3877;42.562;27.636;2023-06-26T00:16:42;101069.59;;;24.32;100.00
7670;BME280;3877;42.562;27.636;2023-06-26T00:19:09;101046.69;;;24.22;100.00
7670;BME280;3877;42.562;27.636;2023-06-26T00:21:36;101062.22;;;24.35;100.00
7670;BME280;3877;42.562;27.636;2023-06-26T00:24:04;101058.13;;;24.39;100.00
7670;BME280;3877;42.562;27.636;2023-06-26T00:26:32;101053.66;;;24.42;100.00
7670;BME280;3877;42.562;27.636;2023-06-26T00:29:00;101064.69;;;24.40;100.00
7670;BME280;3877;42.562;27.636;2023-06-26T00:31:27;101064.25;;;24.38;100.00
7670;BME280;3877;42.562;27.636;2023-06-26T00:33:54;101061.00;;;24.43;100.00
7670;BME280;3877;42.562;27.636;2023-06-26T00:36:22;101049.13;;;24.34;100.00
7670;BME280;3877;42.562;27.636;2023-06-26T00:38:49;101050.78;;;24.35;100.00
7670;BME280;3877;42.562;27.636;2023-06-26T00:41:17;101048.72;;;24.28;100.00
7670;BME280;3877;42.562;27.636;2023-06-26T00:43:45;101048.31;;;24.26;100.00
7670;BME280;3877;42.562;27.636;2023-06-26T00:46:13;101048.31;;;24.26;100.00
7670;BME280;3877;42.562;27.636;2023-06-26T00:48:42;101040.97;;;24.22;100.00
7670;BME280;3877;42.562;27.636;2023-06-26T00:51:10;101040.97;;;24.18;100.00
7670;BME280;3877;42.562;27.636;2023-06-26T00:53:37;101032.75;;;24.13;100.00
7670;BME280;3877;42.562;27.636;2023-06-26T00:56:05;101029.47;;;24.08;100.00
7670;BME280;3877;42.562;27.636;2023-06-26T00:58:32;101038.47;;;24.03;100.00
7670;BME280;3877;42.562;27.636;2023-06-26T01:01:01;101026.63;;;24.04;100.00
7670;BME280;3877;42.562;27.636;2023-06-26T01:03:31;101028.25;;;24.02;100.00
7670;BME280;3877;42.562;27.636;2023-06-26T01:05:59;101016.00;;;24.08;100.00
7670;BME280;3877;42.562;27.636;2023-06-26T01:08:27;101021.69;;;23.97;100.00
7670;BME280;3877;42.562;27.636;2023-06-26T01:10:55;101025.38;;;23.94;100.00
7670;BME280;3877;42.562;27.636;2023-06-26T01:13:23;101012.28;;;23.93;100.00
7670;BME280;3877;42.562;27.636;2023-06-26T01:15:51;101018.00;;;24.01;100.00
7670;BME280;3877;42.562;27.636;2023-06-26T01:18:20;101018.44;;;23.99;100.00
7670;BME280;3877;42.562;27.636;2023-06-26T01:20:48;101013.09;;;24.01;100.00
7670;BME280;3877;42.562;27.636;2023-06-26T01:23:20;101017.63;;;23.98;100.00
7670;BME280;3877;42.562;27.636;2023-06-26T01:28:29;101014.75;;;24.06;100.00
7670;BME280;3877;42.562;27.636;2023-06-26T01:30:57;101002.50;;;23.94;100.00
7670;BME280;3877;42.562;27.636;2023-06-26T01:33:25;101013.09;;;24.01;100.00
7670;BME280;3877;42.562;27.636;2023-06-26T01:35:52;101012.69;;;23.95;100.00
7670;BME280;3877;42.562;27.636;2023-06-26T01:38:20;101004.09;;;23.95;100.00
7670;BME280;3877;42.562;27.636;2023-06-26T01:40:48;101000.03;;;23.89;100.00
7670;BME280;3877;42.562;27.636;2023-06-26T01:43:21;101005.75;;;23.96;100.00
7670;BME280;3877;42.562;27.636;2023-06-26T01:45:55;101009.00;;;23.91;100.00
7670;BME280;3877;42.562;27.636;2023-06-26T01:48:28;101013.09;;;23.87;100.00
7670;BME280;3877;42.562;27.636;2023-06-26T01:50:58;101016.38;;;23.92;100.00
7670;BME280;3877;42.562;27.636;2023-06-26T01:53:35;100931.69;;;23.42;100.00
7670;BME280;3877;42.562;27.636;2023-06-26T01:56:07;101012.28;;;23.86;100.00
7670;BME280;3877;42.562;27.636;2023-06-26T01:58:37;100996.34;;;23.82;100.00
7670;BME280;3877;42.562;27.636;2023-06-26T02:01:09;101012.28;;;23.79;100.00
7670;BME280;3877;42.562;27.636;2023-06-26T02:03:37;101006.53;;;23.72;100.00
7670;BME280;3877;42.562;27.636;2023-06-26T02:06:04;101008.19;;;23.73;100.00
7670;BME280;3877;42.562;27.636;2023-06-26T02:08:31;101008.19;;;23.73;100.00
7670;BME280;3877;42.562;27.636;2023-06-26T02:10:58;101009.78;;;23.67;100.00
7670;BME280;3877;42.562;27.636;2023-06-26T02:13:26;101013.06;;;23.62;100.00
7670;BME280;3877;42.562;27.636;2023-06-26T02:15:53;101005.31;;;23.66;100.00
7670;BME280;3877;42.562;27.636;2023-06-26T02:18:22;101010.63;;;23.64;100.00
7670;BME280;3877;42.562;27.636;2023-06-26T02:20:49;101002.44;;;23.59;100.00
7670;BME280;3877;42.562;27.636;2023-06-26T02:23:17;101000.41;;;23.56;100.00
7670;BME280;3877;42.562;27.636;2023-06-26T02:25:44;101004.06;;;23.64;100.00
7670;BME280;3877;42.562;27.636;2023-06-26T02:28:11;100999.19;;;23.61;100.00
7670;BME280;3877;42.562;27.636;2023-06-26T02:30:39;101001.63;;;23.66;100.00
7670;BME280;3877;42.562;27.636;2023-06-26T02:33:06;100996.28;;;23.57;100.00
7670;BME280;3877;42.562;27.636;2023-06-26T02:35:35;100997.13;;;23.61;100.00
7670;BME280;3877;42.562;27.636;2023-06-26T02:38:02;100976.25;;;23.50;100.00
7670;BME280;3877;42.562;27.636;2023-06-26T02:40:30;101010.63;;;23.61;100.00
7670;BME280;3877;42.562;27.636;2023-06-26T02:42:58;101009.78;;;23.67;100.00
7670;BME280;3877;42.562;27.636;2023-06-26T02:45:25;101000.81;;;23.65;100.00
7670;BME280;3877;42.562;27.636;2023-06-26T02:47:52;101011.03;;;23.73;100.00
7670;BME280;3877;42.562;27.636;2023-06-26T02:50:19;101015.53;;;23.71;100.00
7670;BME280;3877;42.562;27.636;2023-06-26T02:52:48;101003.28;;;23.77;100.00
7670;BME280;3877;42.562;27.636;2023-06-26T02:55:18;101002.47;;;23.87;100.00
7670;BME280;3877;42.562;27.636;2023-06-26T02:57:45;101000.81;;;23.86;100.00
7670;BME280;3877;42.562;27.636;2023-06-26T03:00:13;100992.66;;;23.81;100.00
7670;BME280;3877;42.562;27.636;2023-06-26T03:02:41;100991.84;;;23.84;100.00
7670;BME280;3877;42.562;27.636;2023-06-26T03:05:08;100982.03;;;23.78;100.00
7670;BME280;3877;42.562;27.636;2023-06-26T03:07:35;100992.66;;;23.88;100.00
7670;BME280;3877;42.562;27.636;2023-06-26T03:10:05;100988.59;;;23.89;100.00
7670;BME280;3877;42.562;27.636;2023-06-26T03:12:32;100984.91;;;23.85;100.00
7670;BME280;3877;42.562;27.636;2023-06-26T03:14:59;100987.75;;;23.92;100.00
7670;BME280;3877;42.562;27.636;2023-06-26T03:17:26;100990.22;;;23.83;100.00
7670;BME280;3877;42.562;27.636;2023-06-26T03:19:53;100999.22;;;23.85;100.00
7670;BME280;3877;42.562;27.636;2023-06-26T03:22:21;100959.13;;;23.64;100.00
7670;BME280;3877;42.562;27.636;2023-06-26T03:24:48;100993.88;;;23.66;100.00
7670;BME280;3877;42.562;27.636;2023-06-26T03:27:17;100993.44;;;23.71;100.00
7670;BME280;3877;42.562;27.636;2023-06-26T03:29:44;101002.47;;;23.70;100.00
7670;BME280;3877;42.562;27.636;2023-06-26T03:32:11;100996.72;;;23.73;100.00
7670;BME280;3877;42.562;27.636;2023-06-26T03:34:39;100996.72;;;23.73;100.00
7670;BME280;3877;42.562;27.636;2023-06-26T03:37:06;101008.19;;;23.73;100.00
7670;BME280;3877;42.562;27.636;2023-06-26T03:39:33;100928.00;;;23.31;100.00
7670;BME280;3877;42.562;27.636;2023-06-26T03:42:00;101009.00;;;23.88;100.00
7670;BME280;3877;42.562;27.636;2023-06-26T03:44:29;101009.00;;;23.91;100.00
7670;BME280;3877;42.562;27.636;2023-06-26T03:46:56;101015.13;;;23.86;100.00
7670;BME280;3877;42.562;27.636;2023-06-26T03:49:23;101010.66;;;23.92;100.00
7670;BME280;3877;42.562;27.636;2023-06-26T03:51:51;101008.59;;;23.96;100.00
7670;BME280;3877;42.562;27.636;2023-06-26T03:54:19;101016.38;;;23.92;100.00
7670;BME280;3877;42.562;27.636;2023-06-26T03:56:46;101015.56;;;23.92;100.00
7670;BME280;3877;42.562;27.636;2023-06-26T03:59:13;101021.69;;;23.83;100.00
7670;BME280;3877;42.562;27.636;2023-06-26T04:01:42;101015.56;;;23.88;100.00
7670;BME280;3877;42.562;27.636;2023-06-26T04:04:09;101013.09;;;23.83;100.00
7670;BME280;3877;42.562;27.636;2023-06-26T04:06:36;101009.03;;;23.84;100.00
7670;BME280;3877;42.562;27.636;2023-06-26T04:09:03;101018.41;;;23.95;100.00
7670;BME280;3877;42.562;27.636;2023-06-26T04:11:31;101021.31;;;24.13;100.00
7670;BME280;3877;42.562;27.636;2023-06-26T04:13:58;101013.97;;;24.30;100.00
7670;BME280;3877;42.562;27.636;2023-06-26T04:16:26;101012.69;;;24.52;100.00
7670;BME280;3877;42.562;27.636;2023-06-26T04:18:54;101011.84;;;24.73;100.00
7670;BME280;3877;42.562;27.636;2023-06-26T04:21:23;101002.41;;;24.90;100.00
7670;BME280;3877;42.562;27.636;2023-06-26T04:23:51;101007.66;;;25.09;100.00
7670;BME280;3877;42.562;27.636;2023-06-26T04:26:18;101002.31;;;25.18;100.00
7670;BME280;3877;42.562;27.636;2023-06-26T04:28:45;101004.72;;;25.27;100.00
7670;BME280;3877;42.562;27.636;2023-06-26T04:31:12;101024.31;;;25.39;100.00
7670;BME280;3877;42.562;27.636;2023-06-26T04:33:40;101014.44;;;25.47;100.00
7670;BME280;3877;42.562;27.636;2023-06-26T04:36:08;101011.56;;;25.47;100.00
7670;BME280;3877;42.562;27.636;2023-06-26T04:38:37;101018.56;;;25.43;100.00
7670;BME280;3877;42.562;27.636;2023-06-26T04:41:04;101018.56;;;25.46;100.00
7670;BME280;3877;42.562;27.636;2023-06-26T04:43:31;101002.25;;;25.29;100.00
7670;BME280;3877;42.562;27.636;2023-06-26T04:45:58;101012.91;;;25.25;100.00
7670;BME280;3877;42.562;27.636;2023-06-26T04:48:25;101014.25;;;24.96;100.00
7670;BME280;3877;42.562;27.636;2023-06-26T04:50:54;101015.53;;;24.88;100.00
7670;BME280;3877;42.562;27.636;2023-06-26T04:53:23;101030.25;;;24.82;100.00
7670;BME280;3877;42.562;27.636;2023-06-26T04:55:50;101029.63;;;25.44;100.00
7670;BME280;3877;42.562;27.636;2023-06-26T04:58:18;101011.91;;;25.63;100.00
7670;BME280;3877;42.562;27.636;2023-06-26T05:00:45;101018.50;;;25.60;100.00
7670;BME280;3877;42.562;27.636;2023-06-26T05:03:13;101018.50;;;25.57;100.00
7670;BME280;3877;42.562;27.636;2023-06-26T05:05:42;101020.97;;;25.58;100.00
7670;BME280;3877;42.562;27.636;2023-06-26T05:08:17;101016.41;;;26.23;100.00
7670;BME280;3877;42.562;27.636;2023-06-26T05:10:46;101001.31;;;27.31;100.00
7670;BME280;3877;42.562;27.636;2023-06-26T05:13:13;100995.50;;;27.92;100.00
7670;BME280;3877;42.562;27.636;2023-06-26T05:15:43;101007.34;;;27.98;100.00
7670;BME280;3877;42.562;27.636;2023-06-26T05:18:10;101007.00;;;27.92;100.00
7670;BME280;3877;42.562;27.636;2023-06-26T05:20:38;101005.13;;;27.55;100.00
7670;BME280;3877;42.562;27.636;2023-06-26T05:23:06;101008.97;;;27.11;100.00
7670;BME280;3877;42.562;27.636;2023-06-26T05:25:34;101008.81;;;26.88;100.00
7670;BME280;3877;42.562;27.636;2023-06-26T05:28:04;101014.88;;;26.08;100.00
7670;BME280;3877;42.562;27.636;2023-06-26T05:30:32;101026.56;;;25.83;100.00
7670;BME280;3877;42.562;27.636;2023-06-26T05:33:01;101017.34;;;26.06;100.00
7670;BME280;3877;42.562;27.636;2023-06-26T05:35:30;101015.22;;;27.03;100.00
7670;BME280;3877;42.562;27.636;2023-06-26T05:37:58;101016.59;;;28.12;100.00
7670;BME280;3877;42.562;27.636;2023-06-26T05:40:26;100998.59;;;27.51;100.00
7670;BME280;3877;42.562;27.636;2023-06-26T05:42:53;101022.94;;;27.09;100.00
7670;BME280;3877;42.562;27.636;2023-06-26T05:45:22;101033.97;;;26.77;100.00
7670;BME280;3877;42.562;27.636;2023-06-26T05:47:49;101026.84;;;26.47;100.00
7670;BME280;3877;42.562;27.636;2023-06-26T05:50:17;101034.03;;;26.70;100.00
7670;BME280;3877;42.562;27.636;2023-06-26T05:52:46;101035.94;;;26.42;100.00
7670;BME280;3877;42.562;27.636;2023-06-26T05:55:14;101030.84;;;26.61;100.00
7670;BME280;3877;42.562;27.636;2023-06-26T05:57:42;100955.75;;;26.14;100.00
7670;BME280;3877;42.562;27.636;2023-06-26T06:00:09;101030.13;;;26.49;100.00
7670;BME280;3877;42.562;27.636;2023-06-26T06:02:38;101040.28;;;26.09;100.00
7670;BME280;3877;42.562;27.636;2023-06-26T06:05:07;101041.66;;;25.91;100.00
7670;BME280;3877;42.562;27.636;2023-06-26T06:07:35;101046.03;;;26.09;100.00
7670;BME280;3877;42.562;27.636;2023-06-26T06:10:03;101036.06;;;26.28;100.00
7670;BME280;3877;42.562;27.636;2023-06-26T06:12:31;101038.03;;;26.42;100.00
7670;BME280;3877;42.562;27.636;2023-06-26T06:14:58;101028.50;;;26.48;100.00
7670;BME280;3877;42.562;27.636;2023-06-26T06:17:25;101039.06;;;26.59;100.00
7670;BME280;3877;42.562;27.636;2023-06-26T06:19:54;101041.38;;;26.74;100.00
7670;BME280;3877;42.562;27.636;2023-06-26T06:22:22;101036.59;;;26.61;100.00
7670;BME280;3877;42.562;27.636;2023-06-26T06:24:50;101040.00;;;26.48;100.00
7670;BME280;3877;42.562;27.636;2023-06-26T06:27:18;101039.38;;;26.27;100.00
7670;BME280;3877;42.562;27.636;2023-06-26T06:29:45;101042.66;;;26.25;100.00
7670;BME280;3877;42.562;27.636;2023-06-26T06:32:12;101046.78;;;26.24;100.00
7670;BME280;3877;42.562;27.636;2023-06-26T06:34:39;101052.31;;;25.94;100.00
7670;BME280;3877;42.562;27.636;2023-06-26T06:37:08;101047.91;;;25.79;100.00
7670;BME280;3877;42.562;27.636;2023-06-26T06:39:35;101052.81;;;25.78;100.00
7670;BME280;3877;42.562;27.636;2023-06-26T06:42:02;101054.16;;;25.59;100.00
7670;BME280;3877;42.562;27.636;2023-06-26T06:44:30;101046.22;;;25.81;100.00
7670;BME280;3877;42.562;27.636;2023-06-26T06:46:57;101035.13;;;25.87;100.00
7670;BME280;3877;42.562;27.636;2023-06-26T06:49:24;101047.47;;;25.84;100.00
7670;BME280;3877;42.562;27.636;2023-06-26T06:51:51;101045.22;;;26.09;100.00
7670;BME280;3877;42.562;27.636;2023-06-26T06:54:20;101038.44;;;26.40;100.00
7670;BME280;3877;42.562;27.636;2023-06-26T06:56:47;101044.41;;;26.56;100.00
7670;BME280;3877;42.562;27.636;2023-06-26T06:59:14;101041.69;;;26.42;100.00
7670;BME280;3877;42.562;27.636;2023-06-26T07:01:41;101054.19;;;26.18;100.00
7670;BME280;3877;42.562;27.636;2023-06-26T07:04:09;101053.44;;;26.07;100.00
7670;BME280;3877;42.562;27.636;2023-06-26T07:06:36;101053.50;;;26.00;100.00
7670;BME280;3877;42.562;27.636;2023-06-26T07:09:03;101045.22;;;26.12;100.00
7670;BME280;3877;42.562;27.636;2023-06-26T07:11:32;101045.88;;;26.34;100.00
7670;BME280;3877;42.562;27.636;2023-06-26T07:14:00;101054.81;;;26.43;100.00
7670;BME280;3877;42.562;27.636;2023-06-26T07:16:27;101048.09;;;26.61;100.00
7670;BME280;3877;42.562;27.636;2023-06-26T07:18:54;101044.56;;;26.87;100.00
7670;BME280;3877;42.562;27.636;2023-06-26T07:21:21;101029.50;;;27.10;100.00
7670;BME280;3877;42.562;27.636;2023-06-26T07:23:48;101034.47;;;27.39;100.00
7670;BME280;3877;42.562;27.636;2023-06-26T07:26:15;101031.50;;;27.47;100.00
7670;BME280;3877;42.562;27.636;2023-06-26T07:28:44;101024.09;;;27.49;100.00
7670;BME280;3877;42.562;27.636;2023-06-26T07:31:11;101023.63;;;27.54;100.00
7670;BME280;3877;42.562;27.636;2023-06-26T07:33:38;101021.78;;;27.94;100.00
7670;BME280;3877;42.562;27.636;2023-06-26T07:36:06;101023.94;;;28.17;100.00
7670;BME280;3877;42.562;27.636;2023-06-26T07:38:33;101026.94;;;28.06;100.00
7670;BME280;3877;42.562;27.636;2023-06-26T07:41:00;101023.63;;;27.81;100.00
7670;BME280;3877;42.562;27.636;2023-06-26T07:43:27;101025.75;;;27.77;100.00
7670;BME280;3877;42.562;27.636;2023-06-26T07:45:56;101029.00;;;28.06;100.00
7670;BME280;3877;42.562;27.636;2023-06-26T07:48:24;101028.19;;;28.05;100.00
7670;BME280;3877;42.562;27.636;2023-06-26T07:50:51;101035.63;;;27.76;100.00
7670;BME280;3877;42.562;27.636;2023-06-26T07:53:19;101043.28;;;27.25;100.00
7670;BME280;3877;42.562;27.636;2023-06-26T07:55:46;101053.25;;;26.35;100.00
7670;BME280;3877;42.562;27.636;2023-06-26T07:58:13;101066.53;;;25.42;100.00
7670;BME280;3877;42.562;27.636;2023-06-26T08:00:41;101074.44;;;24.96;100.00
7670;BME280;3877;42.562;27.636;2023-06-26T08:03:09;101085.13;;;24.60;100.00
7670;BME280;3877;42.562;27.636;2023-06-26T08:05:36;101090.88;;;24.35;100.00
7670;BME280;3877;42.562;27.636;2023-06-26T08:08:04;101105.50;;;24.05;100.00
7670;BME280;3877;42.562;27.636;2023-06-26T08:10:32;101118.53;;;23.71;100.00
7670;BME280;3877;42.562;27.636;2023-06-26T08:12:59;101131.91;;;23.52;100.00
7670;BME280;3877;42.562;27.636;2023-06-26T08:15:27;101150.19;;;23.34;100.00
7670;BME280;3877;42.562;27.636;2023-06-26T08:17:54;101145.19;;;23.17;100.00
7670;BME280;3877;42.562;27.636;2023-06-26T08:20:22;101161.44;;;23.05;100.00
7670;BME280;3877;42.562;27.636;2023-06-26T08:22:50;101173.94;;;22.83;100.00
7670;BME280;3877;42.562;27.636;2023-06-26T08:25:18;101178.47;;;22.88;100.00
7670;BME280;3877;42.562;27.636;2023-06-26T08:27:46;101183.00;;;22.92;100.00
7670;BME280;3877;42.562;27.636;2023-06-26T08:30:13;101181.81;;;23.00;100.00
7670;BME280;3877;42.562;27.636;2023-06-26T08:32:40;101196.09;;;23.00;100.00
7670;BME280;3877;42.562;27.636;2023-06-26T08:35:07;101199.41;;;23.02;100.00
7670;BME280;3877;42.562;27.636;2023-06-26T08:37:38;101198.59;;;23.05;100.00
7670;BME280;3877;42.562;27.636;2023-06-26T08:40:06;101192.47;;;23.03;100.00
7670;BME280;3877;42.562;27.636;2023-06-26T08:42:34;101201.50;;;23.09;100.00
7670;BME280;3877;42.562;27.636;2023-06-26T08:45:01;101209.72;;;23.14;100.00
7670;BME280;3877;42.562;27.636;2023-06-26T08:47:30;101221.94;;;23.15;100.00
7670;BME280;3877;42.562;27.636;2023-06-26T08:50:07;101198.13;;;22.96;100.00
7670;BME280;3877;42.562;27.636;2023-06-26T08:52:42;101210.41;;;23.00;100.00
7670;BME280;3877;42.562;27.636;2023-06-26T08:55:10;101208.34;;;22.97;100.00
7670;BME280;3877;42.562;27.636;2023-06-26T08:57:39;101203.44;;;22.94;100.00
7670;BME280;3877;42.562;27.636;2023-06-26T09:00:08;101193.94;;;22.83;100.00
7670;BME280;3877;42.562;27.636;2023-06-26T09:02:36;101203.00;;;22.92;100.00
7670;BME280;3877;42.562;27.636;2023-06-26T09:05:03;101203.91;;;23.03;100.00
7670;BME280;3877;42.562;27.636;2023-06-26T09:07:31;101208.53;;;23.26;100.00
7670;BME280;3877;42.562;27.636;2023-06-26T09:09:59;101203.75;;;23.44;100.00
7670;BME280;3877;42.562;27.636;2023-06-26T09:12:27;101205.50;;;23.59;100.00
7670;BME280;3877;42.562;27.636;2023-06-26T09:14:55;101198.66;;;23.81;100.00
7670;BME280;3877;42.562;27.636;2023-06-26T09:17:24;101204.47;;;24.03;100.00
7670;BME280;3877;42.562;27.636;2023-06-26T09:19:53;101200.91;;;24.30;100.00
7670;BME280;3877;42.562;27.636;2023-06-26T09:22:20;101203.78;;;24.48;100.00
7670;BME280;3877;42.562;27.636;2023-06-26T09:24:48;101201.34;;;24.57;100.00
7670;BME280;3877;42.562;27.636;2023-06-26T09:27:17;101202.19;;;24.82;100.00
7670;BME280;3877;42.562;27.636;2023-06-26T09:29:45;101191.53;;;24.72;100.00
7670;BME280;3877;42.562;27.636;2023-06-26T09:32:13;101197.31;;;24.97;100.00
7670;BME280;3877;42.562;27.636;2023-06-26T09:34:42;101158.00;;;24.98;100.00
7670;BME280;3877;42.562;27.636;2023-06-26T09:37:11;101202.97;;;25.47;100.00
7670;BME280;3877;42.562;27.636;2023-06-26T09:39:39;101182.06;;;25.60;100.00
7670;BME280;3877;42.562;27.636;2023-06-26T09:42:06;101176.66;;;25.77;100.00
7670;BME280;3877;42.562;27.636;2023-06-26T09:44:35;101183.19;;;25.84;100.00
7670;BME280;3877;42.562;27.636;2023-06-26T09:47:03;101178.69;;;25.76;100.00
7670;BME280;3877;42.562;27.636;2023-06-26T09:49:31;101177.50;;;25.66;100.00
7670;BME280;3877;42.562;27.636;2023-06-26T09:52:00;101171.81;;;25.59;100.00
7670;BME280;3877;42.562;27.636;2023-06-26T09:54:28;101170.97;;;25.62;100.00
7670;BME280;3877;42.562;27.636;2023-06-26T09:57:07;101172.59;;;25.67;100.00
7670;BME280;3877;42.562;27.636;2023-06-26T09:59:36;101155.38;;;25.63;100.00
7670;BME280;3877;42.562;27.636;2023-06-26T10:02:04;101165.16;;;25.77;100.00
7670;BME280;3877;42.562;27.636;2023-06-26T10:04:31;101153.63;;;25.94;100.00
7670;BME280;3877;42.562;27.636;2023-06-26T10:07:01;101157.59;;;26.11;100.00
7670;BME280;3877;42.562;27.636;2023-06-26T10:09:30;101158.41;;;26.15;100.00
7670;BME280;3877;42.562;27.636;2023-06-26T10:12:02;101145.28;;;26.21;100.00
7670;BME280;3877;42.562;27.636;2023-06-26T10:14:34;101146.47;;;26.27;100.00
7670;BME280;3877;42.562;27.636;2023-06-26T10:17:07;101150.97;;;26.25;100.00
7670;BME280;3877;42.562;27.636;2023-06-26T10:19:38;101153.16;;;26.03;100.00
7670;BME280;3877;42.562;27.636;2023-06-26T10:22:07;101161.03;;;25.85;100.00
7670;BME280;3877;42.562;27.636;2023-06-26T10:24:35;101161.06;;;25.78;100.00
7670;BME280;3877;42.562;27.636;2023-06-26T10:27:07;101155.38;;;25.71;100.00
7670;BME280;3877;42.562;27.636;2023-06-26T10:29:35;101159.44;;;25.73;100.00
7670;BME280;3877;42.562;27.636;2023-06-26T10:32:06;101169.63;;;25.88;100.00
7670;BME280;3877;42.562;27.636;2023-06-26T10:34:34;101163.53;;;25.72;100.00
7670;BME280;3877;42.562;27.636;2023-06-26T10:37:02;101159.41;;;25.84;100.00
7670;BME280;3877;42.562;27.636;2023-06-26T10:39:45;101144.53;;;26.03;100.00
7670;BME280;3877;42.562;27.636;2023-06-26T10:42:15;101146.19;;;26.04;100.00
7670;BME280;3877;42.562;27.636;2023-06-26T10:44:43;101150.16;;;26.21;100.00
7670;BME280;3877;42.562;27.636;2023-06-26T10:47:29;101152.50;;;26.43;100.00
7670;BME280;3877;42.562;27.636;2023-06-26T10:49:56;101160.31;;;26.39;100.00
7670;BME280;3877;42.562;27.636;2023-06-26T10:52:26;101155.09;;;26.20;100.00
7670;BME280;3877;42.562;27.636;2023-06-26T10:54:54;101164.81;;;26.44;100.00
7670;BME280;3877;42.562;27.636;2023-06-26T10:57:23;101145.06;;;26.49;100.00
7670;BME280;3877;42.562;27.636;2023-06-26T11:00:09;101152.44;;;26.50;100.00
7670;BME280;3877;42.562;27.636;2023-06-26T11:02:49;101152.81;;;26.52;100.00
7670;BME280;3877;42.562;27.636;2023-06-26T11:05:34;101147.53;;;26.51;100.00
7670;BME280;3877;42.562;27.636;2023-06-26T11:08:06;101159.88;;;26.44;100.00
7670;BME280;3877;42.562;27.636;2023-06-26T11:10:59;101154.22;;;26.30;100.00
7670;BME280;3877;42.562;27.636;2023-06-26T11:13:27;101148.56;;;26.16;100.00
7670;BME280;3877;42.562;27.636;2023-06-26T11:22:42;101113.41;;;25.98;100.00
7670;BME280;3877;42.562;27.636;2023-06-26T11:25:10;101106.44;;;25.95;100.00
7670;BME280;3877;42.562;27.636;2023-06-26T11:27:41;101154.31;;;26.09;100.00
7670;BME280;3877;42.562;27.636;2023-06-26T11:30:09;101153.16;;;26.03;100.00
7670;BME280;3877;42.562;27.636;2023-06-26T11:32:37;101152.88;;;25.80;100.00
7670;BME280;3877;42.562;27.636;2023-06-26T11:35:05;101141.34;;;25.83;100.00
7670;BME280;3877;42.562;27.636;2023-06-26T11:37:33;101138.38;;;26.01;100.00
7670;BME280;3877;42.562;27.636;2023-06-26T11:40:16;101142.78;;;26.23;100.00
7670;BME280;3877;42.562;27.636;2023-06-26T11:42:44;101144.31;;;26.38;100.00
7670;BME280;3877;42.562;27.636;2023-06-26T11:45:11;101140.56;;;26.48;100.00
7670;BME280;3877;42.562;27.636;2023-06-26T11:47:40;101129.84;;;26.52;100.00
7670;BME280;3877;42.562;27.636;2023-06-26T11:50:15;101121.41;;;26.31;100.00
7670;BME280;3877;42.562;27.636;2023-06-26T11:52:42;101148.50;;;26.30;100.00
7670;BME280;3877;42.562;27.636;2023-06-26T11:55:11;101154.25;;;26.27;100.00
7670;BME280;3877;42.562;27.636;2023-06-26T11:57:38;101146.91;;;26.15;100.00
7670;BME280;3877;42.562;27.636;2023-06-26T12:00:12;101153.56;;;26.01;100.00
7670;BME280;3877;42.562;27.636;2023-06-26T12:02:40;101161.78;;;25.96;100.00
7670;BME280;3877;42.562;27.636;2023-06-26T12:05:07;101164.31;;;25.87;100.00
7670;BME280;3877;42.562;27.636;2023-06-26T12:07:35;101160.63;;;25.90;100.00
7670;BME280;3877;42.562;27.636;2023-06-26T12:10:03;101158.97;;;25.89;100.00
7670;BME280;3877;42.562;27.636;2023-06-26T12:12:34;101096.41;;;25.55;100.00
7670;BME280;3877;42.562;27.636;2023-06-26T12:15:01;101144.56;;;25.96;100.00
7670;BME280;3877;42.562;27.636;2023-06-26T12:17:29;101147.75;;;26.12;100.00
7670;BME280;3877;42.562;27.636;2023-06-26T12:19:56;101141.16;;;26.15;100.00
7670;BME280;3877;42.562;27.636;2023-06-26T12:22:23;101143.25;;;26.11;100.00
7670;BME280;3877;42.562;27.636;2023-06-26T12:24:51;101124.00;;;26.04;100.00
7670;BME280;3877;42.562;27.636;2023-06-26T12:27:18;101141.97;;;26.26;100.00
7670;BME280;3877;42.562;27.636;2023-06-26T12:29:50;101142.38;;;26.25;100.00
7670;BME280;3877;42.562;27.636;2023-06-26T12:32:19;101148.47;;;26.34;100.00
7670;BME280;3877;42.562;27.636;2023-06-26T12:34:49;101140.22;;;26.39;100.00
7670;BME280;3877;42.562;27.636;2023-06-26T12:37:16;101133.69;;;26.35;100.00
7670;BME280;3877;42.562;27.636;2023-06-26T12:39:48;101126.63;;;26.43;100.00
7670;BME280;3877;42.562;27.636;2023-06-26T12:42:18;101140.84;;;26.61;100.00
7670;BME280;3877;42.562;27.636;2023-06-26T12:44:45;101141.53;;;26.76;100.00
7670;BME280;3877;42.562;27.636;2023-06-26T12:47:15;101143.03;;;26.98;100.00
7670;BME280;3877;42.562;27.636;2023-06-26T12:49:44;101151.50;;;27.12;100.00
7670;BME280;3877;42.562;27.636;2023-06-26T12:52:13;101140.38;;;27.14;100.00
7670;BME280;3877;42.562;27.636;2023-06-26T12:54:41;101149.47;;;27.09;100.00
7670;BME280;3877;42.562;27.636;2023-06-26T12:57:09;101157.31;;;27.05;100.00
7670;BME280;3877;42.562;27.636;2023-06-26T12:59:37;101160.19;;;27.05;100.00
7670;BME280;3877;42.562;27.636;2023-06-26T13:02:06;101158.66;;;26.97;100.00
7670;BME280;3877;42.562;27.636;2023-06-26T13:04:35;101167.75;;;26.85;100.00
7670;BME280;3877;42.562;27.636;2023-06-26T13:07:05;101141.47;;;26.86;100.00